KFAT/FAT METAR and TAF weather

Enter ICAO airport designator
Station Type Date Time Source
KFAT METAR 2022/06/25 22:53 UTC NOAA

KFAT 252253Z 29010KT 10SM FEW120 41/03 A2982 RMK AO2 SLP091 CU OMTNS DSNT N-E-S T04110028 $


Station Type Date Time Source
KFAT Decoded METAR 2022/06/25 22:53 UTC NOAA

FRESNO AIR TERMINAL, CA, United States (KFAT) 36-47N 119-43W 104M
Jun 25, 2022 - 06:53 PM EDT / 2022.06.25 2253 UTC
Wind: from the WNW (290 degrees) at 12 MPH (10 KT):0
Visibility: 10 mile(s):0
Sky conditions: mostly clear
Temperature: 106.0 F (41.1 C)
Dew Point: 37.0 F (2.8 C)
Relative Humidity: 9%
Pressure (altimeter): 29.82 in. Hg (1009 hPa)
ob: KFAT 252253Z 29010KT 10SM FEW120 41/03 A2982 RMK AO2 SLP091 CU OMTNS DSNT N-E-S T04110028
cycle: 23

Station Type Date Time Source
KFAT TAF 2022/06/25 18:22 UTC NOAA

TAF KFAT 251720Z 2518/2618 VRB05KT P6SM SKC

Example: see airport list